sensor_id;sensor_type;location;lat;lon;timestamp;pressure;altitude;pressure_sealevel;temperature;humidity
52361;BME280;38294;42.966;1.608;2022-12-11T03:26:09;96544.28;;;-0.71;72.37
52361;BME280;38294;42.966;1.608;2022-12-11T03:31:29;96518.75;;;-0.60;73.23
52361;BME280;38294;42.966;1.608;2022-12-11T03:34:02;96520.38;;;-0.36;74.15
52361;BME280;38294;42.966;1.608;2022-12-11T03:36:34;96513.94;;;-0.27;73.10
52361;BME280;38294;42.966;1.608;2022-12-11T03:39:11;96509.41;;;-0.18;71.62
52361;BME280;38294;42.966;1.608;2022-12-11T03:41:40;96517.75;;;-0.19;71.83
52361;BME280;38294;42.966;1.608;2022-12-11T03:44:08;96519.06;;;-0.17;71.23
52361;BME280;38294;42.966;1.608;2022-12-11T03:46:37;96519.25;;;-0.13;71.63
52361;BME280;38294;42.966;1.608;2022-12-11T03:49:16;96514.03;;;-0.10;72.85
52361;BME280;38294;42.966;1.608;2022-12-11T03:51:43;96515.00;;;-0.06;72.10
52361;BME280;38294;42.966;1.608;2022-12-11T03:54:11;96511.69;;;-0.03;72.16
52361;BME280;38294;42.966;1.608;2022-12-11T03:56:37;96500.28;;;-0.08;71.86
52361;BME280;38294;42.966;1.608;2022-12-11T03:59:04;96488.91;;;0.04;71.79
52361;BME280;38294;42.966;1.608;2022-12-11T04:01:29;96487.19;;;0.08;71.54
52361;BME280;38294;42.966;1.608;2022-12-11T04:03:55;96473.56;;;0.04;69.75
52361;BME280;38294;42.966;1.608;2022-12-11T04:06:20;96477.19;;;-0.01;69.75
52361;BME280;38294;42.966;1.608;2022-12-11T04:08:46;96469.78;;;0.05;69.53
52361;BME280;38294;42.966;1.608;2022-12-11T04:11:12;96482.75;;;0.03;69.71
52361;BME280;38294;42.966;1.608;2022-12-11T04:13:56;96477.66;;;0.02;69.13
52361;BME280;38294;42.966;1.608;2022-12-11T04:16:40;96477.31;;;-0.06;68.81
52361;BME280;38294;42.966;1.608;2022-12-11T04:19:05;96458.22;;;0.05;69.13
52361;BME280;38294;42.966;1.608;2022-12-11T04:21:49;96459.31;;;0.04;68.79
52361;BME280;38294;42.966;1.608;2022-12-11T04:24:33;96466.53;;;-0.06;68.86
52361;BME280;38294;42.966;1.608;2022-12-11T04:26:59;96447.88;;;-0.02;69.53
52361;BME280;38294;42.966;1.608;2022-12-11T04:29:24;96443.16;;;0.04;70.06
52361;BME280;38294;42.966;1.608;2022-12-11T04:31:50;96445.00;;;-0.06;68.95
52361;BME280;38294;42.966;1.608;2022-12-11T04:34:16;96433.63;;;-0.03;69.86
52361;BME280;38294;42.966;1.608;2022-12-11T04:36:42;96425.44;;;0.03;68.92
52361;BME280;38294;42.966;1.608;2022-12-11T04:39:07;96424.66;;;0.11;68.46
52361;BME280;38294;42.966;1.608;2022-12-11T04:41:33;96431.81;;;0.15;68.18
52361;BME280;38294;42.966;1.608;2022-12-11T04:43:59;96429.38;;;0.05;68.27
52361;BME280;38294;42.966;1.608;2022-12-11T04:46:24;96416.09;;;-0.31;68.80
52361;BME280;38294;42.966;1.608;2022-12-11T04:48:51;96420.63;;;-0.09;68.64
52361;BME280;38294;42.966;1.608;2022-12-11T04:51:17;96425.06;;;-0.05;68.73
52361;BME280;38294;42.966;1.608;2022-12-11T04:53:43;96415.31;;;0.17;68.13
52361;BME280;38294;42.966;1.608;2022-12-11T04:56:11;96419.88;;;-0.01;67.13
52361;BME280;38294;42.966;1.608;2022-12-11T04:58:38;96410.91;;;-0.19;68.53
52361;BME280;38294;42.966;1.608;2022-12-11T05:01:12;96414.56;;;-0.23;67.39
52361;BME280;38294;42.966;1.608;2022-12-11T05:03:38;96413.13;;;-0.21;67.44
52361;BME280;38294;42.966;1.608;2022-12-11T05:06:04;96401.47;;;-0.16;67.45
52361;BME280;38294;42.966;1.608;2022-12-11T05:08:30;96411.59;;;-0.13;67.49
52361;BME280;38294;42.966;1.608;2022-12-11T05:10:57;96406.47;;;-0.23;66.76
52361;BME280;38294;42.966;1.608;2022-12-11T05:13:24;96403.63;;;-0.27;67.11
52361;BME280;38294;42.966;1.608;2022-12-11T05:15:50;96400.78;;;-0.22;66.95
52361;BME280;38294;42.966;1.608;2022-12-11T05:18:16;96400.66;;;-0.17;66.92
52361;BME280;38294;42.966;1.608;2022-12-11T05:20:41;96403.03;;;-0.15;65.99
52361;BME280;38294;42.966;1.608;2022-12-11T05:23:07;96393.97;;;-0.19;66.52
52361;BME280;38294;42.966;1.608;2022-12-11T05:25:32;96393.94;;;-0.28;66.88
52361;BME280;38294;42.966;1.608;2022-12-11T05:27:58;96385.78;;;-0.14;66.68
52361;BME280;38294;42.966;1.608;2022-12-11T05:30:23;96394.72;;;-0.36;66.20
52361;BME280;38294;42.966;1.608;2022-12-11T05:32:49;96398.94;;;-0.43;67.36
52361;BME280;38294;42.966;1.608;2022-12-11T05:35:14;96392.59;;;-0.47;66.40
52361;BME280;38294;42.966;1.608;2022-12-11T05:37:40;96398.25;;;-0.80;67.41
52361;BME280;38294;42.966;1.608;2022-12-11T05:40:06;96392.66;;;-0.61;67.81
52361;BME280;38294;42.966;1.608;2022-12-11T05:42:33;96384.94;;;-0.54;66.86
52361;BME280;38294;42.966;1.608;2022-12-11T05:44:58;96388.03;;;-0.38;67.66
52361;BME280;38294;42.966;1.608;2022-12-11T05:47:24;96387.31;;;-0.22;67.47
52361;BME280;38294;42.966;1.608;2022-12-11T05:49:50;96370.72;;;-0.24;68.00
52361;BME280;38294;42.966;1.608;2022-12-11T05:52:16;96367.59;;;-0.09;67.46
52361;BME280;38294;42.966;1.608;2022-12-11T05:54:41;96360.28;;;-0.17;67.50
52361;BME280;38294;42.966;1.608;2022-12-11T05:57:07;96352.75;;;0.03;67.47
52361;BME280;38294;42.966;1.608;2022-12-11T05:59:32;96339.22;;;-0.15;67.26
52361;BME280;38294;42.966;1.608;2022-12-11T06:01:58;96340.44;;;0.19;67.08
52361;BME280;38294;42.966;1.608;2022-12-11T06:04:23;96338.53;;;0.19;66.24
52361;BME280;38294;42.966;1.608;2022-12-11T06:06:49;96338.84;;;0.26;66.58
52361;BME280;38294;42.966;1.608;2022-12-11T06:09:15;96338.19;;;0.29;65.37
52361;BME280;38294;42.966;1.608;2022-12-11T06:11:41;96340.44;;;0.27;65.21
52361;BME280;38294;42.966;1.608;2022-12-11T06:14:08;96335.38;;;0.26;65.24
52361;BME280;38294;42.966;1.608;2022-12-11T06:16:34;96335.66;;;0.16;65.56
52361;BME280;38294;42.966;1.608;2022-12-11T06:19:00;96333.47;;;0.35;65.80
52361;BME280;38294;42.966;1.608;2022-12-11T06:21:30;96330.13;;;0.29;65.99
52361;BME280;38294;42.966;1.608;2022-12-11T06:23:58;96330.00;;;0.34;65.85
52361;BME280;38294;42.966;1.608;2022-12-11T06:26:24;96339.34;;;0.28;65.02
52361;BME280;38294;42.966;1.608;2022-12-11T06:28:51;96334.41;;;0.39;65.08
52361;BME280;38294;42.966;1.608;2022-12-11T06:31:17;96339.97;;;0.25;65.40
52361;BME280;38294;42.966;1.608;2022-12-11T06:33:43;96335.69;;;0.33;64.27
52361;BME280;38294;42.966;1.608;2022-12-11T06:36:12;96331.88;;;0.34;64.59
52361;BME280;38294;42.966;1.608;2022-12-11T06:38:37;96332.69;;;0.43;63.40
52361;BME280;38294;42.966;1.608;2022-12-11T06:41:05;96327.47;;;0.46;64.50
52361;BME280;38294;42.966;1.608;2022-12-11T06:43:33;96336.97;;;0.44;64.62
52361;BME280;38294;42.966;1.608;2022-12-11T06:46:01;96330.31;;;0.41;64.28
52361;BME280;38294;42.966;1.608;2022-12-11T06:48:27;96330.31;;;0.41;64.84
52361;BME280;38294;42.966;1.608;2022-12-11T06:50:53;96324.44;;;0.31;64.31
52361;BME280;38294;42.966;1.608;2022-12-11T06:53:19;96323.81;;;0.34;64.31
52361;BME280;38294;42.966;1.608;2022-12-11T06:55:44;96320.00;;;0.35;64.50
52361;BME280;38294;42.966;1.608;2022-12-11T06:58:10;96321.91;;;0.26;64.46
52361;BME280;38294;42.966;1.608;2022-12-11T07:00:37;96313.19;;;0.29;64.87
52361;BME280;38294;42.966;1.608;2022-12-11T07:03:03;96307.16;;;0.23;64.27
52361;BME280;38294;42.966;1.608;2022-12-11T07:05:30;96294.34;;;0.29;64.34
52361;BME280;38294;42.966;1.608;2022-12-11T07:07:56;96289.25;;;0.36;64.95
52361;BME280;38294;42.966;1.608;2022-12-11T07:10:22;96293.84;;;0.18;64.88
52361;BME280;38294;42.966;1.608;2022-12-11T07:12:47;96285.31;;;0.16;65.28
52361;BME280;38294;42.966;1.608;2022-12-11T07:15:13;96281.50;;;0.17;65.70
52361;BME280;38294;42.966;1.608;2022-12-11T07:17:39;96278.97;;;0.29;65.71
52361;BME280;38294;42.966;1.608;2022-12-11T07:20:05;96276.75;;;0.31;66.10
52361;BME280;38294;42.966;1.608;2022-12-11T07:22:30;96258.50;;;0.45;64.53
52361;BME280;38294;42.966;1.608;2022-12-11T07:24:56;96254.56;;;0.51;65.46
52361;BME280;38294;42.966;1.608;2022-12-11T07:27:21;96243.81;;;0.34;65.20
52361;BME280;38294;42.966;1.608;2022-12-11T07:29:47;96240.31;;;0.25;66.04
52361;BME280;38294;42.966;1.608;2022-12-11T07:32:14;96233.66;;;0.23;66.07
52361;BME280;38294;42.966;1.608;2022-12-11T07:34:40;96240.94;;;0.31;65.68
52361;BME280;38294;42.966;1.608;2022-12-11T07:37:05;96225.06;;;0.55;66.21
52361;BME280;38294;42.966;1.608;2022-12-11T07:39:31;96238.56;;;0.38;66.04
52361;BME280;38294;42.966;1.608;2022-12-11T07:41:56;96256.00;;;0.32;65.44
52361;BME280;38294;42.966;1.608;2022-12-11T07:44:22;96263.28;;;0.40;65.97
52361;BME280;38294;42.966;1.608;2022-12-11T07:46:47;96262.31;;;0.53;65.78
52361;BME280;38294;42.966;1.608;2022-12-11T07:49:13;96256.59;;;0.72;65.53
52361;BME280;38294;42.966;1.608;2022-12-11T07:51:39;96253.25;;;0.75;64.89
52361;BME280;38294;42.966;1.608;2022-12-11T07:54:11;96250.34;;;1.05;64.26
52361;BME280;38294;42.966;1.608;2022-12-11T07:56:41;96247.22;;;0.86;62.91
52361;BME280;38294;42.966;1.608;2022-12-11T07:59:07;96250.84;;;0.99;62.33
52361;BME280;38294;42.966;1.608;2022-12-11T08:01:34;96253.16;;;1.18;62.12
52361;BME280;38294;42.966;1.608;2022-12-11T08:04:01;96239.66;;;1.18;62.41
52361;BME280;38294;42.966;1.608;2022-12-11T08:06:32;96234.38;;;1.30;62.28
52361;BME280;38294;42.966;1.608;2022-12-11T08:08:59;96230.16;;;1.12;61.86
52361;BME280;38294;42.966;1.608;2022-12-11T08:11:26;96232.47;;;1.30;62.77
52361;BME280;38294;42.966;1.608;2022-12-11T08:13:52;96240.59;;;1.22;61.87
52361;BME280;38294;42.966;1.608;2022-12-11T08:16:18;96251.34;;;0.84;63.75
52361;BME280;38294;42.966;1.608;2022-12-11T08:18:45;96245.97;;;1.30;63.54
52361;BME280;38294;42.966;1.608;2022-12-11T08:21:19;96222.44;;;1.39;63.34
52361;BME280;38294;42.966;1.608;2022-12-11T08:23:46;96219.22;;;1.46;63.00
52361;BME280;38294;42.966;1.608;2022-12-11T08:26:14;96209.59;;;1.36;62.28
52361;BME280;38294;42.966;1.608;2022-12-11T08:28:39;96201.28;;;1.50;62.56
52361;BME280;38294;42.966;1.608;2022-12-11T08:31:08;96206.38;;;1.72;61.67
52361;BME280;38294;42.966;1.608;2022-12-11T08:33:35;96205.78;;;1.67;61.56
52361;BME280;38294;42.966;1.608;2022-12-11T08:36:03;96205.34;;;1.85;61.16
52361;BME280;38294;42.966;1.608;2022-12-11T08:38:29;96211.25;;;1.79;61.44
52361;BME280;38294;42.966;1.608;2022-12-11T08:40:55;96210.22;;;1.71;61.39
52361;BME280;38294;42.966;1.608;2022-12-11T08:43:21;96205.47;;;1.89;61.19
52361;BME280;38294;42.966;1.608;2022-12-11T08:45:46;96202.31;;;2.07;61.07
52361;BME280;38294;42.966;1.608;2022-12-11T08:48:12;96207.47;;;2.21;60.38
52361;BME280;38294;42.966;1.608;2022-12-11T08:50:37;96197.91;;;2.24;59.51
52361;BME280;38294;42.966;1.608;2022-12-11T08:53:03;96209.25;;;1.96;59.27
52361;BME280;38294;42.966;1.608;2022-12-11T08:55:29;96235.00;;;1.94;60.40
52361;BME280;38294;42.966;1.608;2022-12-11T08:57:55;96225.19;;;2.10;60.75
52361;BME280;38294;42.966;1.608;2022-12-11T09:00:21;96226.94;;;2.27;60.58
52361;BME280;38294;42.966;1.608;2022-12-11T09:02:47;96215.38;;;2.26;59.17
52361;BME280;38294;42.966;1.608;2022-12-11T09:05:12;96220.66;;;2.23;59.51
52361;BME280;38294;42.966;1.608;2022-12-11T09:07:38;96228.69;;;2.31;59.57
52361;BME280;38294;42.966;1.608;2022-12-11T09:10:05;96235.72;;;2.24;59.79
52361;BME280;38294;42.966;1.608;2022-12-11T09:12:33;96221.81;;;2.34;60.02
52361;BME280;38294;42.966;1.608;2022-12-11T09:14:59;96220.56;;;2.52;60.38
52361;BME280;38294;42.966;1.608;2022-12-11T09:17:25;96214.41;;;2.63;60.35
52361;BME280;38294;42.966;1.608;2022-12-11T09:19:50;96213.06;;;2.70;59.05
52361;BME280;38294;42.966;1.608;2022-12-11T09:22:16;96215.16;;;2.52;59.87
52361;BME280;38294;42.966;1.608;2022-12-11T09:24:42;96231.13;;;2.24;60.94
52361;BME280;38294;42.966;1.608;2022-12-11T09:27:07;96229.47;;;2.32;61.32
52361;BME280;38294;42.966;1.608;2022-12-11T09:29:33;96235.44;;;2.58;61.05
52361;BME280;38294;42.966;1.608;2022-12-11T09:31:59;96214.59;;;2.91;59.87
52361;BME280;38294;42.966;1.608;2022-12-11T09:34:25;96216.97;;;2.93;59.00
52361;BME280;38294;42.966;1.608;2022-12-11T09:36:50;96210.34;;;3.14;58.01
52361;BME280;38294;42.966;1.608;2022-12-11T09:39:17;96208.75;;;3.13;57.79
52361;BME280;38294;42.966;1.608;2022-12-11T09:44:29;96205.09;;;3.42;56.63
52361;BME280;38294;42.966;1.608;2022-12-11T09:46:56;96199.88;;;3.49;57.00
52361;BME280;38294;42.966;1.608;2022-12-11T09:49:37;96202.03;;;3.80;56.09
52361;BME280;38294;42.966;1.608;2022-12-11T09:52:17;96213.28;;;3.94;55.94
52361;BME280;38294;42.966;1.608;2022-12-11T09:55:18;96202.44;;;4.06;55.69
52361;BME280;38294;42.966;1.608;2022-12-11T09:57:53;96203.44;;;4.02;54.56
52361;BME280;38294;42.966;1.608;2022-12-11T10:03:09;96201.38;;;4.23;54.06
52361;BME280;38294;42.966;1.608;2022-12-11T10:05:50;96200.59;;;4.22;53.88
52361;BME280;38294;42.966;1.608;2022-12-11T10:14:18;96171.25;;;4.40;54.82
52361;BME280;38294;42.966;1.608;2022-12-11T10:16:53;96170.41;;;4.36;55.57
52361;BME280;38294;42.966;1.608;2022-12-11T10:19:25;96167.25;;;4.50;55.31
52361;BME280;38294;42.966;1.608;2022-12-11T10:21:52;96162.94;;;4.61;54.38
52361;BME280;38294;42.966;1.608;2022-12-11T10:24:41;96163.59;;;4.42;55.24
52361;BME280;38294;42.966;1.608;2022-12-11T10:27:19;96166.59;;;4.25;55.53
52361;BME280;38294;42.966;1.608;2022-12-11T10:29:59;96157.38;;;4.42;54.81
52361;BME280;38294;42.966;1.608;2022-12-11T10:32:47;96153.50;;;4.70;54.05
52361;BME280;38294;42.966;1.608;2022-12-11T10:35:34;96153.81;;;5.12;53.41
52361;BME280;38294;42.966;1.608;2022-12-11T10:38:11;96140.47;;;5.07;51.79
52361;BME280;38294;42.966;1.608;2022-12-11T10:40:43;96124.91;;;5.04;51.94
52361;BME280;38294;42.966;1.608;2022-12-11T10:43:09;96120.53;;;5.15;51.82
52361;BME280;38294;42.966;1.608;2022-12-11T10:45:35;96122.38;;;5.11;52.19
52361;BME280;38294;42.966;1.608;2022-12-11T10:48:08;96124.56;;;4.90;52.64
52361;BME280;38294;42.966;1.608;2022-12-11T10:50:34;96111.88;;;5.25;51.73
52361;BME280;38294;42.966;1.608;2022-12-11T10:53:00;96105.03;;;5.32;51.91
52361;BME280;38294;42.966;1.608;2022-12-11T10:55:43;96082.31;;;5.40;52.19
52361;BME280;38294;42.966;1.608;2022-12-11T10:58:17;96086.44;;;5.34;51.19
52361;BME280;38294;42.966;1.608;2022-12-11T11:00:44;96083.75;;;5.18;52.08
52361;BME280;38294;42.966;1.608;2022-12-11T11:03:21;96078.69;;;5.16;51.73
52361;BME280;38294;42.966;1.608;2022-12-11T11:05:48;96075.09;;;5.12;51.22
52361;BME280;38294;42.966;1.608;2022-12-11T11:08:19;96078.09;;;5.77;50.42
52361;BME280;38294;42.966;1.608;2022-12-11T11:10:55;96063.53;;;6.04;49.20
52361;BME280;38294;42.966;1.608;2022-12-11T11:13:24;96063.22;;;5.71;48.17
52361;BME280;38294;42.966;1.608;2022-12-11T11:16:06;96061.47;;;6.17;47.78
52361;BME280;38294;42.966;1.608;2022-12-11T11:18:38;96053.97;;;6.29;47.76
52361;BME280;38294;42.966;1.608;2022-12-11T11:21:05;96048.97;;;6.12;48.68
52361;BME280;38294;42.966;1.608;2022-12-11T11:23:33;96048.22;;;5.77;49.13
52361;BME280;38294;42.966;1.608;2022-12-11T11:26:06;96053.97;;;5.91;49.87
52361;BME280;38294;42.966;1.608;2022-12-11T11:28:40;96034.69;;;6.38;48.59
52361;BME280;38294;42.966;1.608;2022-12-11T11:31:14;96036.72;;;6.03;49.02
52361;BME280;38294;42.966;1.608;2022-12-11T11:34:07;96041.50;;;5.71;49.94
52361;BME280;38294;42.966;1.608;2022-12-11T11:36:36;96037.53;;;6.45;47.80
52361;BME280;38294;42.966;1.608;2022-12-11T11:41:51;96005.97;;;7.12;46.27
52361;BME280;38294;42.966;1.608;2022-12-11T11:44:36;95992.88;;;6.04;47.43
52361;BME280;38294;42.966;1.608;2022-12-11T11:47:13;95983.97;;;6.98;46.61
52361;BME280;38294;42.966;1.608;2022-12-11T11:49:49;95971.94;;;6.99;47.08
52361;BME280;38294;42.966;1.608;2022-12-11T11:52:35;95973.72;;;7.14;45.82
52361;BME280;38294;42.966;1.608;2022-12-11T11:57:53;95957.13;;;7.53;45.39
52361;BME280;38294;42.966;1.608;2022-12-11T12:00:22;95952.75;;;7.78;43.48
52361;BME280;38294;42.966;1.608;2022-12-11T12:02:51;95949.91;;;8.01;43.23
52361;BME280;38294;42.966;1.608;2022-12-11T12:05:25;95946.25;;;6.97;44.43
52361;BME280;38294;42.966;1.608;2022-12-11T12:08:01;95947.72;;;7.80;43.90
52361;BME280;38294;42.966;1.608;2022-12-11T12:10:43;95950.31;;;8.39;42.10
52361;BME280;38294;42.966;1.608;2022-12-11T12:15:51;95936.72;;;8.47;41.91
52361;BME280;38294;42.966;1.608;2022-12-11T12:24:08;95926.88;;;8.35;40.57
52361;BME280;38294;42.966;1.608;2022-12-11T12:26:38;95925.59;;;8.25;41.40
52361;BME280;38294;42.966;1.608;2022-12-11T12:29:41;95934.41;;;8.49;41.07
52361;BME280;38294;42.966;1.608;2022-12-11T12:45:16;95921.91;;;9.74;36.45
52361;BME280;38294;42.966;1.608;2022-12-11T12:47:46;95918.66;;;9.37;37.07
52361;BME280;38294;42.966;1.608;2022-12-11T12:50:16;95916.63;;;9.23;36.52
52361;BME280;38294;42.966;1.608;2022-12-11T12:52:43;95926.19;;;8.96;37.34
52361;BME280;38294;42.966;1.608;2022-12-11T12:57:41;95914.22;;;8.60;38.62
52361;BME280;38294;42.966;1.608;2022-12-11T13:00:09;95911.66;;;8.78;38.59
52361;BME280;38294;42.966;1.608;2022-12-11T13:02:49;95909.72;;;8.85;38.32
52361;BME280;38294;42.966;1.608;2022-12-11T13:05:24;95911.91;;;9.17;37.45
52361;BME280;38294;42.966;1.608;2022-12-11T13:07:58;95907.25;;;9.21;37.85
52361;BME280;38294;42.966;1.608;2022-12-11T13:10:33;95899.50;;;9.37;37.43
52361;BME280;38294;42.966;1.608;2022-12-11T13:13:01;95885.47;;;9.42;37.47
52361;BME280;38294;42.966;1.608;2022-12-11T13:18:03;95882.47;;;9.75;36.94
52361;BME280;38294;42.966;1.608;2022-12-11T13:20:32;95891.06;;;9.81;36.72
52361;BME280;38294;42.966;1.608;2022-12-11T13:23:25;95900.44;;;9.80;35.95
52361;BME280;38294;42.966;1.608;2022-12-11T13:25:57;95897.69;;;9.73;36.75
52361;BME280;38294;42.966;1.608;2022-12-11T13:28:24;95898.88;;;9.75;36.65
52361;BME280;38294;42.966;1.608;2022-12-11T13:31:24;95909.41;;;9.77;36.40
52361;BME280;38294;42.966;1.608;2022-12-11T13:33:54;95913.38;;;9.90;35.81
52361;BME280;38294;42.966;1.608;2022-12-11T13:38:55;95905.22;;;10.08;35.46
52361;BME280;38294;42.966;1.608;2022-12-11T13:41:23;95896.94;;;9.83;35.56
52361;BME280;38294;42.966;1.608;2022-12-11T13:43:49;95892.75;;;10.14;35.86
52361;BME280;38294;42.966;1.608;2022-12-11T13:46:21;95891.56;;;10.15;35.02
52361;BME280;38294;42.966;1.608;2022-12-11T13:48:55;95887.09;;;9.61;35.36
52361;BME280;38294;42.966;1.608;2022-12-11T13:51:26;95898.69;;;9.29;36.99
52361;BME280;38294;42.966;1.608;2022-12-11T13:54:03;95885.94;;;9.58;38.73
52361;BME280;38294;42.966;1.608;2022-12-11T13:56:29;95881.19;;;9.48;38.87
52361;BME280;38294;42.966;1.608;2022-12-11T13:58:55;95886.25;;;9.39;38.42
52361;BME280;38294;42.966;1.608;2022-12-11T14:01:26;95881.97;;;9.48;39.76
52361;BME280;38294;42.966;1.608;2022-12-11T14:04:09;95882.66;;;9.24;41.34
52361;BME280;38294;42.966;1.608;2022-12-11T14:06:37;95884.56;;;9.13;42.34
52361;BME280;38294;42.966;1.608;2022-12-11T14:09:04;95880.78;;;9.39;41.97
52361;BME280;38294;42.966;1.608;2022-12-11T14:11:39;95872.63;;;9.60;41.59
52361;BME280;38294;42.966;1.608;2022-12-11T14:14:33;95870.59;;;9.32;43.04
52361;BME280;38294;42.966;1.608;2022-12-11T14:16:53;95858.91;;;9.35;42.38
52361;BME280;38294;42.966;1.608;2022-12-11T14:19:21;95861.91;;;9.09;43.79
52361;BME280;38294;42.966;1.608;2022-12-11T14:21:57;95866.31;;;9.35;43.29
52361;BME280;38294;42.966;1.608;2022-12-11T14:24:22;95874.50;;;8.66;45.06
52361;BME280;38294;42.966;1.608;2022-12-11T14:26:50;95881.75;;;8.44;46.07
52361;BME280;38294;42.966;1.608;2022-12-11T14:29:30;95879.91;;;8.56;44.83
52361;BME280;38294;42.966;1.608;2022-12-11T14:32:01;95887.31;;;8.55;45.46
52361;BME280;38294;42.966;1.608;2022-12-11T14:34:33;95892.66;;;8.44;45.95
52361;BME280;38294;42.966;1.608;2022-12-11T14:37:01;95890.78;;;8.52;45.01
52361;BME280;38294;42.966;1.608;2022-12-11T14:39:34;95889.66;;;8.60;45.47
52361;BME280;38294;42.966;1.608;2022-12-11T14:42:06;95888.28;;;8.33;45.99
52361;BME280;38294;42.966;1.608;2022-12-11T19:56:14;96110.78;;;4.52;66.77
52361;BME280;38294;42.966;1.608;2022-12-11T19:58:41;96098.38;;;4.82;67.19
52361;BME280;38294;42.966;1.608;2022-12-11T20:01:07;96105.91;;;5.04;65.35
52361;BME280;38294;42.966;1.608;2022-12-11T20:03:34;96105.63;;;4.62;66.35
52361;BME280;38294;42.966;1.608;2022-12-11T20:06:05;96108.22;;;4.43;66.27
52361;BME280;38294;42.966;1.608;2022-12-11T20:08:32;96108.16;;;4.55;66.81
52361;BME280;38294;42.966;1.608;2022-12-11T20:11:05;96107.91;;;5.07;65.99
52361;BME280;38294;42.966;1.608;2022-12-11T20:13:31;96101.97;;;5.17;65.84
52361;BME280;38294;42.966;1.608;2022-12-11T20:15:57;96100.41;;;5.16;64.70
52361;BME280;38294;42.966;1.608;2022-12-11T20:18:23;96105.75;;;4.97;65.01
52361;BME280;38294;42.966;1.608;2022-12-11T20:20:49;96095.56;;;4.78;66.25
52361;BME280;38294;42.966;1.608;2022-12-11T20:23:14;96102.75;;;4.71;66.84
52361;BME280;38294;42.966;1.608;2022-12-11T20:25:40;96108.47;;;4.97;66.07
52361;BME280;38294;42.966;1.608;2022-12-11T20:28:06;96108.38;;;4.94;66.42
52361;BME280;38294;42.966;1.608;2022-12-11T20:30:32;96113.72;;;4.90;66.38
52361;BME280;38294;42.966;1.608;2022-12-11T20:32:57;96123.25;;;4.84;66.25
52361;BME280;38294;42.966;1.608;2022-12-11T20:35:23;96132.78;;;4.94;65.57
52361;BME280;38294;42.966;1.608;2022-12-11T20:37:51;96141.03;;;4.97;65.76
52361;BME280;38294;42.966;1.608;2022-12-11T20:40:16;96139.97;;;5.17;65.74
52361;BME280;38294;42.966;1.608;2022-12-11T20:42:42;96128.81;;;5.54;64.08
52361;BME280;38294;42.966;1.608;2022-12-11T20:45:08;96145.59;;;5.59;63.70
52361;BME280;38294;42.966;1.608;2022-12-11T20:47:33;96145.22;;;5.76;62.61
52361;BME280;38294;42.966;1.608;2022-12-11T20:49:59;96145.53;;;5.56;63.32
52361;BME280;38294;42.966;1.608;2022-12-11T20:52:25;96148.31;;;5.59;63.20
52361;BME280;38294;42.966;1.608;2022-12-11T20:54:50;96153.38;;;5.76;62.41
52361;BME280;38294;42.966;1.608;2022-12-11T20:57:16;96153.31;;;5.73;61.91
52361;BME280;38294;42.966;1.608;2022-12-11T20:59:42;96144.09;;;5.93;61.81
52361;BME280;38294;42.966;1.608;2022-12-11T21:02:10;96155.50;;;5.67;62.35
52361;BME280;38294;42.966;1.608;2022-12-11T21:04:37;96150.47;;;6.01;61.82
52361;BME280;38294;42.966;1.608;2022-12-11T21:07:07;96147.25;;;5.79;62.29
52361;BME280;38294;42.966;1.608;2022-12-11T21:09:34;96148.56;;;5.70;62.17
52361;BME280;38294;42.966;1.608;2022-12-11T21:11:59;96156.03;;;5.73;61.90
52361;BME280;38294;42.966;1.608;2022-12-11T21:14:26;96141.16;;;6.02;61.11
52361;BME280;38294;42.966;1.608;2022-12-11T21:16:52;96142.66;;;5.99;60.81
52361;BME280;38294;42.966;1.608;2022-12-11T21:19:18;96147.47;;;5.55;61.68
52361;BME280;38294;42.966;1.608;2022-12-11T21:21:44;96154.06;;;5.39;61.89
